Time;durP1;ratioP1;P1;durP2;ratioP2;P2;SDS_P1;SDS_P2;PMS_P1;PMS_P2;Temp;Humidity;BMP_temperature;BMP_pressure;BME280_temperature;BME280_humidity;BME280_pressure;Samples;Min_cycle;Max_cycle;Signal;HPM_P1;HPM_P2
2023/02/20 00:00:48;;;;;;;;;;;20.90;58.90;;;;;;1533370;76;1162;-61
2023/02/20 00:02:50;;;;;;;;;;;20.80;58.70;;;;;;1541322;76;712;-61
2023/02/20 00:04:52;;;;;;;;;;;20.80;58.60;;;;;;1546238;76;1509;-62
2023/02/20 00:06:54;;;;;;;;;;;20.80;58.70;;;;;;1534267;76;713;-64
2023/02/20 00:08:56;;;;;;;;;;;20.80;58.60;;;;;;1549977;76;659;-63
2023/02/20 00:10:58;;;;;;;;;;;20.90;58.70;;;;;;1539008;76;1131;-61
2023/02/20 00:13:00;;;;;;;;;;;20.90;58.70;;;;;;1542295;76;744;-61
2023/02/20 00:15:02;;;;;;;;;;;20.80;58.70;;;;;;1541738;76;777;-63
2023/02/20 00:17:03;;;;;;;;;;;20.80;58.60;;;;;;1546143;76;1923;-62
2023/02/20 00:19:05;;;;;;;;;;;20.90;58.60;;;;;;1551196;76;1527;-62
2023/02/20 00:21:07;;;;;;;;;;;20.80;58.50;;;;;;1540158;76;1154;-63
2023/02/20 00:23:09;;;;;;;;;;;20.90;58.50;;;;;;1538342;76;677;-63
2023/02/20 00:25:11;;;;;;;;;;;20.90;58.70;;;;;;1544419;76;739;-62
2023/02/20 00:27:13;;;;;;;;;;;20.90;58.70;;;;;;1537399;76;809;-62
2023/02/20 00:29:16;;;;;;;;;;;20.90;58.70;;;;;;1538408;76;723;-62
2023/02/20 00:31:18;;;;;;;;;;;20.90;58.70;;;;;;1537575;76;1118;-62
2023/02/20 00:33:20;;;;;;;;;;;20.80;58.90;;;;;;1537402;76;1554;-64
2023/02/20 00:35:22;;;;;;;;;;;20.80;58.70;;;;;;1535234;76;1941;-65
2023/02/20 00:37:24;;;;;;;;;;;20.90;58.80;;;;;;1536466;76;766;-62
2023/02/20 00:39:26;;;;;;;;;;;20.90;58.60;;;;;;1537420;76;801;-62
2023/02/20 00:41:28;;;;;;;;;;;20.90;58.60;;;;;;1534679;76;1161;-63
2023/02/20 00:43:30;;;;;;;;;;;21.00;58.50;;;;;;1546337;76;702;-62
2023/02/20 00:45:32;;;;;;;;;;;21.00;58.50;;;;;;1549348;76;666;-63
2023/02/20 00:47:34;;;;;;;;;;;21.00;58.50;;;;;;1543906;76;1572;-63
2023/02/20 00:49:36;;;;;;;;;;;20.90;58.50;;;;;;1543846;76;655;-65
2023/02/20 00:51:37;;;;;;;;;;;20.90;58.50;;;;;;1543435;76;1169;-66
2023/02/20 00:53:39;;;;;;;;;;;20.90;58.60;;;;;;1538816;76;801;-61
2023/02/20 00:55:41;;;;;;;;;;;20.90;58.50;;;;;;1550762;76;1939;-62
2023/02/20 00:57:43;;;;;;;;;;;20.90;58.60;;;;;;1540626;76;719;-62
2023/02/20 00:59:45;;;;;;;;;;;20.90;58.60;;;;;;1536570;76;775;-62
2023/02/20 01:01:47;;;;;;;;;;;20.90;58.60;;;;;;1538781;76;1530;-62
2023/02/20 01:03:49;;;;;;;;;;;20.90;58.60;;;;;;1535718;76;803;-63
2023/02/20 01:05:50;;;;;;;;;;;20.90;58.50;;;;;;1542360;76;682;-61
2023/02/20 01:07:53;;;;;;;;;;;20.90;58.50;;;;;;1533240;76;864;-64
2023/02/20 01:09:55;;;;;;;;;;;20.90;58.60;;;;;;1539591;76;721;-62
2023/02/20 01:11:57;;;;;;;;;;;20.90;58.60;;;;;;1539791;76;1189;-61
2023/02/20 01:13:58;;;;;;;;;;;20.90;58.70;;;;;;1547866;76;750;-62
2023/02/20 01:16:00;;;;;;;;;;;20.90;58.70;;;;;;1540819;76;1936;-64
2023/02/20 01:18:04;;;;;;;;;;;20.90;58.60;;;;;;1537601;76;711;-62
2023/02/20 01:20:07;;;;;;;;;;;20.90;58.60;;;;;;1533273;76;1944;-62
2023/02/20 01:22:09;;;;;;;;;;;21.00;58.50;;;;;;1537193;76;694;-61
2023/02/20 01:24:11;;;;;;;;;;;20.90;58.60;;;;;;1542696;76;743;-62
2023/02/20 01:26:13;;;;;;;;;;;20.90;58.60;;;;;;1535820;76;680;-61
2023/02/20 01:28:15;;;;;;;;;;;20.90;58.70;;;;;;1536365;76;757;-62
2023/02/20 01:30:17;;;;;;;;;;;20.80;58.60;;;;;;1537777;76;1491;-63
2023/02/20 01:32:19;;;;;;;;;;;20.90;58.60;;;;;;1538656;76;775;-63
2023/02/20 01:34:21;;;;;;;;;;;20.90;58.60;;;;;;1539190;76;709;-61
2023/02/20 01:36:23;;;;;;;;;;;20.80;58.50;;;;;;1537449;76;1929;-62
2023/02/20 01:38:24;;;;;;;;;;;20.90;58.60;;;;;;1547340;76;746;-61
2023/02/20 01:40:26;;;;;;;;;;;20.90;58.60;;;;;;1536154;76;1146;-61
2023/02/20 01:42:29;;;;;;;;;;;20.90;58.60;;;;;;1536711;76;729;-61
2023/02/20 01:44:31;;;;;;;;;;;20.90;58.60;;;;;;1537399;76;1665;-61
2023/02/20 01:46:41;;;;;;;;;;;20.90;58.70;;;;;;1546463;76;724;-61
2023/02/20 01:48:43;;;;;;;;;;;20.90;58.70;;;;;;1546113;76;705;-63
2023/02/20 01:50:45;;;;;;;;;;;20.90;58.90;;;;;;1536805;76;1151;-62
2023/02/20 01:52:48;;;;;;;;;;;20.90;58.90;;;;;;1543025;76;702;-68
2023/02/20 01:54:52;;;;;;;;;;;20.90;58.90;;;;;;1543950;76;1901;-62
2023/02/20 01:56:54;;;;;;;;;;;20.80;58.80;;;;;;1534743;76;1947;-62
2023/02/20 01:58:55;;;;;;;;;;;20.80;58.80;;;;;;1533475;76;699;-63
2023/02/20 02:00:57;;;;;;;;;;;20.90;58.80;;;;;;1550702;76;1113;-63
2023/02/20 02:03:01;;;;;;;;;;;20.80;58.60;;;;;;1533462;76;782;-64
2023/02/20 02:05:03;;;;;;;;;;;20.80;58.60;;;;;;1545319;76;790;-62
2023/02/20 02:07:05;;;;;;;;;;;20.90;58.60;;;;;;1543485;76;1007;-62
2023/02/20 02:09:17;;;;;;;;;;;20.90;58.60;;;;;;1538456;76;742;-63
2023/02/20 02:11:20;;;;;;;;;;;20.90;58.90;;;;;;1538778;76;1539;-62
2023/02/20 02:13:22;;;;;;;;;;;20.90;58.80;;;;;;1541214;76;729;-62
2023/02/20 02:15:24;;;;;;;;;;;20.80;58.70;;;;;;1539239;76;729;-62
2023/02/20 02:17:33;;;;;;;;;;;20.90;58.80;;;;;;1546229;76;1911;-62
2023/02/20 02:19:40;;;;;;;;;;;20.90;58.80;;;;;;1536233;76;1505;-62
2023/02/20 02:22:00;;;;;;;;;;;20.90;58.80;;;;;;1533692;76;1958;-64
2023/02/20 02:24:10;;;;;;;;;;;20.90;58.80;;;;;;1535612;76;732;-65
2023/02/20 02:26:25;;;;;;;;;;;20.90;58.80;;;;;;1536482;76;1850;-64
2023/02/20 02:28:29;;;;;;;;;;;20.90;58.80;;;;;;1533949;76;2239;-66
2023/02/20 02:30:32;;;;;;;;;;;20.90;58.80;;;;;;1545914;76;1209;-62
2023/02/20 02:32:36;;;;;;;;;;;20.90;58.80;;;;;;1539945;76;2141;-62
2023/02/20 02:34:56;;;;;;;;;;;20.90;58.80;;;;;;1546600;76;1888;-65
2023/02/20 02:36:59;;;;;;;;;;;20.90;58.80;;;;;;1539936;76;1928;-67
2023/02/20 02:39:19;;;;;;;;;;;20.90;58.80;;;;;;1534808;76;1586;-62
2023/02/20 02:41:22;;;;;;;;;;;20.90;58.80;;;;;;1535975;76;1130;-62
2023/02/20 02:43:42;;;;;;;;;;;20.90;58.80;;;;;;1543902;76;773;-62
2023/02/20 02:45:57;;;;;;;;;;;20.90;58.80;;;;;;1544442;76;667;-62
2023/02/20 02:48:00;;;;;;;;;;;20.80;58.90;;;;;;1543444;76;747;-62
2023/02/20 02:50:06;;;;;;;;;;;20.80;58.90;;;;;;1540034;76;1185;-63
2023/02/20 02:52:07;;;;;;;;;;;20.80;58.90;;;;;;1541713;76;734;-65
2023/02/20 02:54:10;;;;;;;;;;;20.80;58.70;;;;;;1543222;76;1582;-65
2023/02/20 02:56:21;;;;;;;;;;;20.80;58.70;;;;;;1531246;76;1944;-64
2023/02/20 02:58:23;;;;;;;;;;;20.80;58.70;;;;;;1540784;76;589;-63
2023/02/20 03:00:26;;;;;;;;;;;20.80;58.70;;;;;;1543751;76;1154;-62
2023/02/20 03:02:30;;;;;;;;;;;20.80;58.70;;;;;;1540430;76;1574;-66
2023/02/20 03:04:32;;;;;;;;;;;20.80;58.70;;;;;;1538761;76;799;-62
2023/02/20 03:06:34;;;;;;;;;;;20.80;58.70;;;;;;1543769;76;679;-63
2023/02/20 03:08:40;;;;;;;;;;;20.80;58.70;;;;;;1534710;76;1495;-65
2023/02/20 03:10:42;;;;;;;;;;;20.80;58.70;;;;;;1547361;76;1170;-62
2023/02/20 03:12:47;;;;;;;;;;;20.80;58.80;;;;;;1548131;76;758;-63
2023/02/20 03:17:11;;;;;;;;;;;20.80;58.70;;;;;;1535562;76;1932;-63
2023/02/20 03:19:14;;;;;;;;;;;20.90;58.90;;;;;;1552847;76;791;-62
2023/02/20 03:21:17;;;;;;;;;;;20.80;58.80;;;;;;1542024;76;1575;-62
2023/02/20 03:23:20;;;;;;;;;;;20.90;58.90;;;;;;1545444;76;773;-62
2023/02/20 03:25:23;;;;;;;;;;;20.80;58.80;;;;;;1535229;76;1787;-63
2023/02/20 03:27:27;;;;;;;;;;;20.80;58.90;;;;;;1537684;76;680;-62
2023/02/20 03:29:33;;;;;;;;;;;20.90;59.00;;;;;;1542147;76;737;-65
2023/02/20 03:31:36;;;;;;;;;;;20.80;58.90;;;;;;1542903;76;1130;-64
2023/02/20 03:45:22;;;;;;;;;;;20.80;59.00;;;;;;1541924;76;801;-62
2023/02/20 03:47:24;;;;;;;;;;;20.80;59.30;;;;;;1545107;76;755;-61
2023/02/20 03:49:27;;;;;;;;;;;20.70;59.40;;;;;;1546904;76;1531;-65
2023/02/20 03:51:29;;;;;;;;;;;20.70;59.60;;;;;;1534542;76;1154;-61
2023/02/20 03:53:30;;;;;;;;;;;20.70;59.50;;;;;;1537422;76;674;-65
2023/02/20 03:55:33;;;;;;;;;;;20.70;59.60;;;;;;1541094;76;759;-62
2023/02/20 03:57:36;;;;;;;;;;;20.70;59.50;;;;;;1537300;76;1904;-65
2023/02/20 03:59:47;;;;;;;;;;;20.70;59.80;;;;;;1551410;76;1132;-62
2023/02/20 04:01:50;;;;;;;;;;;20.70;59.80;;;;;;1544972;76;1128;-63
2023/02/20 04:03:52;;;;;;;;;;;20.70;59.60;;;;;;1536779;76;1551;-63
2023/02/20 04:05:54;;;;;;;;;;;20.70;59.60;;;;;;1536771;76;689;-62
2023/02/20 04:08:04;;;;;;;;;;;20.70;59.50;;;;;;1541607;76;753;-63
2023/02/20 04:10:06;;;;;;;;;;;20.80;59.50;;;;;;1532962;76;1147;-65
2023/02/20 04:12:10;;;;;;;;;;;20.70;59.40;;;;;;1541889;76;755;-61
2023/02/20 04:14:12;;;;;;;;;;;20.70;59.80;;;;;;1543957;76;1926;-61
2023/02/20 04:16:13;;;;;;;;;;;20.70;59.80;;;;;;1537574;76;685;-61
2023/02/20 04:18:17;;;;;;;;;;;20.70;59.60;;;;;;1541477;76;1944;-62
2023/02/20 04:20:19;;;;;;;;;;;20.80;59.40;;;;;;1533991;76;1115;-61
2023/02/20 04:22:22;;;;;;;;;;;20.80;59.30;;;;;;1536807;76;762;-61
2023/02/20 04:24:32;;;;;;;;;;;20.80;59.20;;;;;;1540226;76;1951;-61
2023/02/20 04:26:34;;;;;;;;;;;20.80;59.10;;;;;;1540784;76;1928;-61
2023/02/20 04:28:36;;;;;;;;;;;20.80;59.00;;;;;;1541575;76;749;-61
2023/02/20 04:30:37;;;;;;;;;;;20.80;59.00;;;;;;1541205;76;1139;-61
2023/02/20 04:32:39;;;;;;;;;;;20.80;59.00;;;;;;1540295;76;1523;-61
2023/02/20 04:34:41;;;;;;;;;;;20.80;58.90;;;;;;1541674;76;709;-61
2023/02/20 04:36:43;;;;;;;;;;;20.80;58.90;;;;;;1548576;76;1955;-61
2023/02/20 04:38:45;;;;;;;;;;;20.80;58.80;;;;;;1538207;76;707;-62
2023/02/20 04:40:47;;;;;;;;;;;20.90;58.90;;;;;;1541552;76;1141;-61
2023/02/20 04:42:49;;;;;;;;;;;20.80;58.70;;;;;;1538891;76;730;-61
2023/02/20 04:44:51;;;;;;;;;;;20.80;58.80;;;;;;1543590;76;783;-61
2023/02/20 04:46:53;;;;;;;;;;;20.80;59.10;;;;;;1544995;76;1578;-64
2023/02/20 04:48:55;;;;;;;;;;;20.80;59.10;;;;;;1541274;76;758;-62
2023/02/20 04:50:56;;;;;;;;;;;20.80;58.90;;;;;;1540925;76;1117;-62
2023/02/20 04:52:58;;;;;;;;;;;20.90;59.00;;;;;;1536550;76;691;-61
2023/02/20 04:55:00;;;;;;;;;;;20.80;58.90;;;;;;1536843;76;817;-61
2023/02/20 04:57:02;;;;;;;;;;;20.90;59.00;;;;;;1539742;76;1930;-62
2023/02/20 04:59:04;;;;;;;;;;;20.80;58.90;;;;;;1543461;76;806;-61
2023/02/20 05:01:06;;;;;;;;;;;20.90;59.00;;;;;;1544396;76;1638;-60
2023/02/20 05:03:08;;;;;;;;;;;20.80;58.90;;;;;;1543978;76;778;-63
2023/02/20 05:05:20;;;;;;;;;;;20.80;58.90;;;;;;1544909;76;754;-61
2023/02/20 05:07:22;;;;;;;;;;;20.80;58.80;;;;;;1540968;76;779;-61
2023/02/20 05:09:24;;;;;;;;;;;20.80;58.80;;;;;;1549084;76;751;-61
2023/02/20 05:11:26;;;;;;;;;;;20.70;58.90;;;;;;1543099;76;1121;-60
2023/02/20 05:13:28;;;;;;;;;;;20.80;58.80;;;;;;1544263;76;812;-60
2023/02/20 05:15:30;;;;;;;;;;;20.80;58.80;;;;;;1546265;76;1562;-61
2023/02/20 05:17:32;;;;;;;;;;;20.90;58.90;;;;;;1547631;76;1923;-61
2023/02/20 05:19:34;;;;;;;;;;;20.80;58.70;;;;;;1542299;76;795;-61
2023/02/20 05:23:56;;;;;;;;;;;20.80;58.70;;;;;;1542140;76;1630;-61
2023/02/20 05:25:58;;;;;;;;;;;20.80;58.70;;;;;;1540704;76;735;-61
2023/02/20 05:27:59;;;;;;;;;;;20.80;58.80;;;;;;1534088;76;1525;-61
2023/02/20 05:30:01;;;;;;;;;;;20.90;58.90;;;;;;1547645;76;1134;-61
2023/02/20 05:32:03;;;;;;;;;;;20.80;58.70;;;;;;1550174;76;763;-62
2023/02/20 05:34:05;;;;;;;;;;;20.90;58.90;;;;;;1545322;76;767;-60
2023/02/20 05:36:07;;;;;;;;;;;20.80;58.80;;;;;;1545118;76;695;-61
2023/02/20 05:38:09;;;;;;;;;;;20.90;58.90;;;;;;1535306;76;1944;-61
2023/02/20 05:40:11;;;;;;;;;;;20.80;58.80;;;;;;1541921;76;1152;-62
2023/02/20 05:42:13;;;;;;;;;;;20.80;58.90;;;;;;1538784;76;1281;-62
2023/02/20 05:44:15;;;;;;;;;;;20.80;59.00;;;;;;1541365;76;760;-61
2023/02/20 05:46:17;;;;;;;;;;;20.70;59.20;;;;;;1536021;76;806;-61
2023/02/20 05:48:19;;;;;;;;;;;20.70;59.30;;;;;;1544473;76;770;-61
2023/02/20 05:50:21;;;;;;;;;;;20.70;59.60;;;;;;1533445;76;1079;-60
2023/02/20 05:52:23;;;;;;;;;;;20.70;59.80;;;;;;1541921;76;755;-64
2023/02/20 05:54:24;;;;;;;;;;;20.70;59.60;;;;;;1537152;76;759;-61
2023/02/20 05:56:28;;;;;;;;;;;20.70;59.50;;;;;;1532383;76;1564;-61
2023/02/20 05:58:30;;;;;;;;;;;20.60;59.50;;;;;;1535904;76;1927;-60
2023/02/20 06:00:32;;;;;;;;;;;20.70;59.70;;;;;;1536748;76;1239;-60
2023/02/20 06:02:34;;;;;;;;;;;20.70;59.80;;;;;;1543345;76;713;-60
2023/02/20 06:04:36;;;;;;;;;;;20.60;59.80;;;;;;1549395;76;789;-60
2023/02/20 06:06:38;;;;;;;;;;;20.50;59.90;;;;;;1545477;76;668;-61
2023/02/20 06:08:40;;;;;;;;;;;20.60;60.10;;;;;;1533071;76;684;-60
2023/02/20 06:10:42;;;;;;;;;;;20.60;60.10;;;;;;1533043;76;1386;-61
2023/02/20 06:12:44;;;;;;;;;;;20.60;59.80;;;;;;1534251;76;759;-60
2023/02/20 06:14:46;;;;;;;;;;;20.70;59.90;;;;;;1545563;76;695;-60
2023/02/20 06:16:48;;;;;;;;;;;20.60;59.80;;;;;;1545515;76;793;-62
2023/02/20 06:18:50;;;;;;;;;;;20.70;59.90;;;;;;1549228;76;1941;-63
2023/02/20 06:20:52;;;;;;;;;;;20.70;59.90;;;;;;1538638;76;1123;-60
2023/02/20 06:22:53;;;;;;;;;;;20.70;59.80;;;;;;1544889;76;704;-61
2023/02/20 06:24:55;;;;;;;;;;;20.70;60.00;;;;;;1537649;76;1538;-62
2023/02/20 06:26:57;;;;;;;;;;;20.70;60.30;;;;;;1532636;76;740;-61
2023/02/20 06:28:59;;;;;;;;;;;20.60;60.30;;;;;;1532664;76;740;-60
2023/02/20 06:31:01;;;;;;;;;;;20.60;60.30;;;;;;1542012;76;1119;-61
2023/02/20 06:33:03;;;;;;;;;;;20.70;60.30;;;;;;1543206;76;778;-61
2023/02/20 06:35:05;;;;;;;;;;;20.70;60.10;;;;;;1546252;76;732;-62
2023/02/20 06:37:07;;;;;;;;;;;20.80;59.70;;;;;;1538250;76;661;-60
2023/02/20 06:39:09;;;;;;;;;;;20.80;59.50;;;;;;1533937;76;1926;-60
2023/02/20 06:41:11;;;;;;;;;;;20.80;59.20;;;;;;1534279;76;1114;-60
2023/02/20 06:43:13;;;;;;;;;;;20.80;59.10;;;;;;1540923;76;713;-60
2023/02/20 06:45:15;;;;;;;;;;;20.90;59.10;;;;;;1532830;76;646;-61
2023/02/20 06:47:17;;;;;;;;;;;20.80;58.90;;;;;;1550029;76;693;-61
2023/02/20 06:49:19;;;;;;;;;;;20.90;58.90;;;;;;1542536;76;800;-63
2023/02/20 06:51:22;;;;;;;;;;;20.90;58.90;;;;;;1548087;76;1114;-62
2023/02/20 06:53:24;;;;;;;;;;;20.90;58.80;;;;;;1541508;76;1510;-61
2023/02/20 06:55:26;;;;;;;;;;;20.90;58.80;;;;;;1541981;76;759;-61
2023/02/20 06:57:28;;;;;;;;;;;20.90;58.70;;;;;;1541391;76;774;-62
2023/02/20 06:59:29;;;;;;;;;;;20.90;58.70;;;;;;1544859;76;1924;-64
2023/02/20 07:01:33;;;;;;;;;;;20.80;58.40;;;;;;1534450;76;1145;-62
2023/02/20 07:03:35;;;;;;;;;;;20.80;57.50;;;;;;1544300;76;1794;-61
2023/02/20 07:05:37;;;;;;;;;;;20.80;57.40;;;;;;1542950;76;729;-62
2023/02/20 07:07:39;;;;;;;;;;;20.80;57.40;;;;;;1542022;76;1543;-61
2023/02/20 07:09:41;;;;;;;;;;;20.80;57.40;;;;;;1538591;76;774;-61
2023/02/20 07:11:43;;;;;;;;;;;20.90;57.60;;;;;;1537479;76;1071;-61
2023/02/20 07:13:45;;;;;;;;;;;20.90;57.60;;;;;;1540774;76;881;-61
2023/02/20 07:15:47;;;;;;;;;;;20.90;57.60;;;;;;1534615;76;675;-63
2023/02/20 07:17:49;;;;;;;;;;;20.90;57.60;;;;;;1537733;76;1936;-62
2023/02/20 07:19:51;;;;;;;;;;;20.80;57.40;;;;;;1537509;76;755;-61
2023/02/20 07:21:52;;;;;;;;;;;20.90;57.50;;;;;;1541987;76;1548;-63
2023/02/20 07:23:54;;;;;;;;;;;20.80;57.50;;;;;;1538139;76;737;-61
2023/02/20 07:25:56;;;;;;;;;;;20.80;57.50;;;;;;1542457;76;813;-61
2023/02/20 07:27:58;;;;;;;;;;;20.80;57.50;;;;;;1546763;76;715;-61
2023/02/20 07:30:00;;;;;;;;;;;20.80;57.50;;;;;;1545385;76;1146;-62
2023/02/20 07:32:02;;;;;;;;;;;20.80;57.50;;;;;;1535278;76;789;-63
2023/02/20 07:34:04;;;;;;;;;;;20.80;57.50;;;;;;1539511;76;775;-63
2023/02/20 07:36:06;;;;;;;;;;;20.90;57.60;;;;;;1538671;76;1625;-61
2023/02/20 07:38:08;;;;;;;;;;;20.80;57.50;;;;;;1533785;76;1936;-63
2023/02/20 07:40:11;;;;;;;;;;;20.80;57.50;;;;;;1540226;76;1118;-61
2023/02/20 07:42:13;;;;;;;;;;;20.80;57.60;;;;;;1544918;76;726;-61
2023/02/20 07:44:15;;;;;;;;;;;20.80;57.40;;;;;;1543932;76;721;-63
2023/02/20 07:46:17;;;;;;;;;;;20.90;57.60;;;;;;1538005;76;1137;-63
2023/02/20 07:48:19;;;;;;;;;;;20.80;57.40;;;;;;1543473;76;1525;-62
2023/02/20 07:50:21;;;;;;;;;;;20.80;57.40;;;;;;1539124;76;1523;-62
2023/02/20 07:52:23;;;;;;;;;;;20.80;57.40;;;;;;1546663;76;1466;-64
2023/02/20 07:54:26;;;;;;;;;;;20.80;57.40;;;;;;1536552;76;1450;-61
2023/02/20 07:56:27;;;;;;;;;;;20.80;57.30;;;;;;1543685;76;1500;-62
2023/02/20 07:58:29;;;;;;;;;;;20.80;57.30;;;;;;1548605;76;1940;-61
2023/02/20 08:00:31;;;;;;;;;;;20.80;57.30;;;;;;1538283;76;1381;-61
2023/02/20 08:02:33;;;;;;;;;;;20.80;57.30;;;;;;1538862;76;1484;-61
2023/02/20 08:04:35;;;;;;;;;;;20.80;57.40;;;;;;1533815;76;1395;-61
2023/02/20 08:06:37;;;;;;;;;;;20.80;57.40;;;;;;1539635;76;1287;-62
2023/02/20 08:08:39;;;;;;;;;;;20.80;57.30;;;;;;1544602;76;1546;-68
2023/02/20 08:10:41;;;;;;;;;;;20.80;57.30;;;;;;1549981;76;1360;-62
2023/02/20 08:12:42;;;;;;;;;;;20.80;57.40;;;;;;1540547;76;1420;-61
2023/02/20 08:14:45;;;;;;;;;;;20.80;57.30;;;;;;1541138;76;1278;-61
2023/02/20 08:16:46;;;;;;;;;;;20.80;57.30;;;;;;1545917;76;1431;-61
2023/02/20 08:18:48;;;;;;;;;;;20.80;57.30;;;;;;1544168;76;1935;-61
2023/02/20 08:20:51;;;;;;;;;;;20.80;57.30;;;;;;1543794;76;1147;-61
2023/02/20 08:22:53;;;;;;;;;;;20.80;57.30;;;;;;1540367;76;1032;-61
2023/02/20 08:24:55;;;;;;;;;;;20.70;57.30;;;;;;1542789;76;1412;-64
2023/02/20 08:26:57;;;;;;;;;;;20.80;57.30;;;;;;1536626;76;1338;-63
2023/02/20 08:28:59;;;;;;;;;;;20.80;57.30;;;;;;1545846;76;1320;-62
2023/02/20 08:31:01;;;;;;;;;;;20.80;57.20;;;;;;1543812;76;1539;-64
2023/02/20 08:33:05;;;;;;;;;;;20.80;57.20;;;;;;1543305;76;1290;-61
2023/02/20 08:35:06;;;;;;;;;;;20.80;57.10;;;;;;1549412;76;1651;-63
2023/02/20 08:37:08;;;;;;;;;;;20.70;57.30;;;;;;1538922;76;1279;-62
2023/02/20 08:39:10;;;;;;;;;;;20.70;57.40;;;;;;1538099;76;1920;-63
2023/02/20 08:41:13;;;;;;;;;;;20.70;57.30;;;;;;1544557;76;1133;-63
2023/02/20 08:43:14;;;;;;;;;;;20.80;57.30;;;;;;1542460;76;1317;-62
2023/02/20 08:45:16;;;;;;;;;;;20.70;57.20;;;;;;1539900;76;1481;-63
2023/02/20 08:47:19;;;;;;;;;;;20.80;57.10;;;;;;1541985;76;1091;-61
2023/02/20 08:49:21;;;;;;;;;;;20.80;57.20;;;;;;1543513;76;1237;-63
2023/02/20 08:51:25;;;;;;;;;;;20.80;57.10;;;;;;1550420;76;1438;-63
2023/02/20 08:53:27;;;;;;;;;;;20.80;57.10;;;;;;1544665;76;1279;-64
2023/02/20 08:55:29;;;;;;;;;;;20.80;57.10;;;;;;1544313;76;1128;-62
2023/02/20 08:57:30;;;;;;;;;;;20.80;57.10;;;;;;1537702;76;1492;-62
2023/02/20 08:59:32;;;;;;;;;;;20.80;57.10;;;;;;1545203;76;1943;-61
2023/02/20 09:01:34;;;;;;;;;;;20.70;57.10;;;;;;1544721;76;1406;-62
2023/02/20 09:03:40;;;;;;;;;;;20.80;57.10;;;;;;1543132;76;1232;-62
2023/02/20 09:05:40;;;;;;;;;;;20.70;57.10;;;;;;1548195;76;1067;-60
2023/02/20 09:07:42;;;;;;;;;;;20.70;57.10;;;;;;1539141;76;1113;-63
2023/02/20 09:09:44;;;;;;;;;;;20.80;57.10;;;;;;1548795;76;1141;-64
2023/02/20 09:11:46;;;;;;;;;;;20.80;57.10;;;;;;1539111;76;1502;-63
2023/02/20 09:13:48;;;;;;;;;;;20.80;57.00;;;;;;1548885;76;1540;-63
2023/02/20 09:15:50;;;;;;;;;;;20.80;57.00;;;;;;1553031;76;1134;-63
2023/02/20 09:17:52;;;;;;;;;;;20.80;57.00;;;;;;1547624;76;1118;-63
2023/02/20 09:19:54;;;;;;;;;;;20.70;57.10;;;;;;1535489;76;1943;-64
2023/02/20 09:21:56;;;;;;;;;;;20.70;57.10;;;;;;1534671;76;1492;-63
2023/02/20 09:23:57;;;;;;;;;;;20.80;57.10;;;;;;1541849;76;1533;-63
2023/02/20 09:25:59;;;;;;;;;;;20.80;57.10;;;;;;1536184;76;1262;-63
2023/02/20 09:28:01;;;;;;;;;;;20.70;57.20;;;;;;1539997;76;1475;-61
2023/02/20 09:30:03;;;;;;;;;;;20.70;57.30;;;;;;1544832;76;1135;-63
2023/02/20 09:32:05;;;;;;;;;;;20.70;57.50;;;;;;1546415;76;1415;-61
2023/02/20 09:34:07;;;;;;;;;;;20.70;57.60;;;;;;1537279;76;1414;-61
2023/02/20 09:36:09;;;;;;;;;;;20.60;58.00;;;;;;1540667;76;1464;-64
2023/02/20 09:38:11;;;;;;;;;;;20.70;58.20;;;;;;1543623;76;1355;-62
2023/02/20 09:40:13;;;;;;;;;;;20.70;58.30;;;;;;1542634;76;1929;-62
2023/02/20 09:42:26;;;;;;;;;;;20.60;58.30;;;;;;1539430;76;1507;-63
2023/02/20 09:44:35;;;;;;;;;;;20.50;59.00;;;;;;1538485;76;1608;-64
2023/02/20 09:46:37;;;;;;;;;;;20.60;59.70;;;;;;1539030;76;1128;-62
2023/02/20 09:48:46;;;;;;;;;;;20.60;60.30;;;;;;1541266;76;1098;-63
2023/02/20 09:50:58;;;;;;;;;;;20.50;60.60;;;;;;1539217;76;1276;-64
2023/02/20 09:53:05;;;;;;;;;;;20.50;60.80;;;;;;1541276;76;1295;-63
2023/02/20 09:55:07;;;;;;;;;;;20.60;60.60;;;;;;1536779;76;1738;-61
2023/02/20 09:57:10;;;;;;;;;;;20.70;59.70;;;;;;1537611;76;1311;-61
2023/02/20 09:59:13;;;;;;;;;;;20.90;59.10;;;;;;1542520;76;1953;-60
2023/02/20 10:01:17;;;;;;;;;;;21.00;58.40;;;;;;1541202;76;1348;-61
2023/02/20 10:03:33;;;;;;;;;;;21.00;57.40;;;;;;1538856;76;1311;-62
2023/02/20 10:05:33;;;;;;;;;;;21.10;57.00;;;;;;1547683;76;1615;-60
2023/02/20 10:07:36;;;;;;;;;;;21.10;56.50;;;;;;1546214;76;1641;-61
2023/02/20 10:09:38;;;;;;;;;;;21.10;56.10;;;;;;1538071;76;1528;-60
2023/02/20 10:11:45;;;;;;;;;;;21.10;55.70;;;;;;1544163;76;1261;-60
2023/02/20 10:13:48;;;;;;;;;;;21.10;55.50;;;;;;1542728;76;1517;-62
2023/02/20 10:15:52;;;;;;;;;;;21.10;55.90;;;;;;1545024;76;1153;-62
2023/02/20 10:18:01;;;;;;;;;;;21.10;56.00;;;;;;1539496;76;1507;-64
2023/02/20 10:20:21;;;;;;;;;;;21.10;55.80;;;;;;1539993;76;1932;-62
2023/02/20 10:22:25;;;;;;;;;;;21.10;55.60;;;;;;1539607;76;1121;-63
2023/02/20 10:24:28;;;;;;;;;;;21.10;55.40;;;;;;1538122;76;1925;-65
2023/02/20 10:26:32;;;;;;;;;;;21.00;55.10;;;;;;1543963;76;1199;-61
2023/02/20 10:28:34;;;;;;;;;;;20.90;54.50;;;;;;1539845;76;1644;-64
2023/02/20 10:30:37;;;;;;;;;;;21.00;54.90;;;;;;1538664;76;1162;-61
2023/02/20 10:32:43;;;;;;;;;;;20.90;55.50;;;;;;1541418;76;659;-62
2023/02/20 10:34:55;;;;;;;;;;;20.90;55.90;;;;;;1548312;76;686;-62
2023/02/20 10:36:58;;;;;;;;;;;20.90;56.10;;;;;;1534502;76;685;-63
2023/02/20 10:39:01;;;;;;;;;;;20.80;56.30;;;;;;1545038;76;1940;-63
2023/02/20 10:41:05;;;;;;;;;;;20.90;56.70;;;;;;1533449;76;1143;-62
2023/02/20 10:43:18;;;;;;;;;;;20.90;56.90;;;;;;1535715;76;773;-62
2023/02/20 10:45:26;;;;;;;;;;;20.90;57.00;;;;;;1542440;76;745;-62
2023/02/20 10:47:29;;;;;;;;;;;20.90;57.10;;;;;;1532584;76;1598;-61
2023/02/20 10:49:38;;;;;;;;;;;20.90;57.20;;;;;;1543515;76;806;-61
2023/02/20 10:51:42;;;;;;;;;;;21.00;57.20;;;;;;1501131;76;1379;-62
2023/02/20 10:53:54;;;;;;;;;;;20.90;57.10;;;;;;1549317;76;793;-64
2023/02/20 10:55:58;;;;;;;;;;;20.90;57.10;;;;;;1542030;76;1049;-62
2023/02/20 10:58:03;;;;;;;;;;;21.00;57.00;;;;;;1537506;76;1976;-62
2023/02/20 11:00:07;;;;;;;;;;;21.00;57.00;;;;;;1539934;76;1920;-61
2023/02/20 11:02:10;;;;;;;;;;;20.90;57.00;;;;;;1539573;76;685;-61
2023/02/20 11:04:14;;;;;;;;;;;21.00;57.00;;;;;;1544966;76;1070;-62
2023/02/20 11:06:16;;;;;;;;;;;21.00;57.00;;;;;;1540670;76;1443;-61
2023/02/20 11:08:19;;;;;;;;;;;21.00;56.90;;;;;;1539301;76;765;-62
2023/02/20 11:10:21;;;;;;;;;;;21.00;56.90;;;;;;1543254;76;1157;-63
2023/02/20 11:12:27;;;;;;;;;;;21.10;57.00;;;;;;1537268;76;879;-62
2023/02/20 11:14:49;;;;;;;;;;;21.00;56.90;;;;;;1540698;76;1947;-62
2023/02/20 11:16:50;;;;;;;;;;;21.00;56.80;;;;;;1538083;76;1559;-63
2023/02/20 11:18:56;;;;;;;;;;;21.10;56.80;;;;;;1540814;76;845;-62
2023/02/20 11:20:58;;;;;;;;;;;21.10;56.90;;;;;;1542986;76;1959;-63
2023/02/20 11:23:01;;;;;;;;;;;21.00;56.70;;;;;;1539235;76;740;-62
2023/02/20 11:25:04;;;;;;;;;;;21.10;56.80;;;;;;1541929;76;672;-63
2023/02/20 11:27:10;;;;;;;;;;;21.10;56.60;;;;;;1521801;76;1676;-63
2023/02/20 11:29:14;;;;;;;;;;;21.10;56.50;;;;;;1548208;76;670;-62
2023/02/20 11:31:16;;;;;;;;;;;21.20;56.40;;;;;;1537005;76;1103;-61
2023/02/20 11:33:18;;;;;;;;;;;21.30;56.30;;;;;;1540819;76;707;-63
2023/02/20 11:35:21;;;;;;;;;;;21.20;56.20;;;;;;1537464;76;705;-62
2023/02/20 11:37:23;;;;;;;;;;;21.30;56.20;;;;;;1545417;76;707;-62
2023/02/20 11:39:25;;;;;;;;;;;21.20;56.00;;;;;;1537811;76;1914;-61
2023/02/20 11:41:35;;;;;;;;;;;21.30;56.00;;;;;;1537661;76;1138;-62
2023/02/20 11:43:38;;;;;;;;;;;21.20;55.90;;;;;;1543318;76;701;-63
2023/02/20 11:45:40;;;;;;;;;;;21.20;55.80;;;;;;1543339;76;753;-63
2023/02/20 11:47:42;;;;;;;;;;;21.30;56.00;;;;;;1546005;76;1568;-62
2023/02/20 11:49:44;;;;;;;;;;;21.30;55.90;;;;;;1546721;76;806;-62
2023/02/20 11:51:47;;;;;;;;;;;21.30;55.90;;;;;;1536195;76;1143;-62
2023/02/20 11:53:49;;;;;;;;;;;21.30;55.80;;;;;;1536821;76;666;-63
2023/02/20 11:56:07;;;;;;;;;;;21.30;55.80;;;;;;1520493;76;1035;-62
2023/02/20 11:58:11;;;;;;;;;;;21.30;55.90;;;;;;1537077;76;1828;-62
2023/02/20 12:00:20;;;;;;;;;;;21.30;55.70;;;;;;1535361;76;1904;-61
2023/02/20 12:02:23;;;;;;;;;;;21.30;55.70;;;;;;1542871;76;1553;-63
2023/02/20 12:04:25;;;;;;;;;;;21.20;55.70;;;;;;1546230;76;720;-61
2023/02/20 12:06:38;;;;;;;;;;;21.30;55.80;;;;;;1532656;76;813;-61
2023/02/20 12:08:56;;;;;;;;;;;21.20;55.70;;;;;;1548910;76;728;-62
2023/02/20 12:11:00;;;;;;;;;;;21.20;55.70;;;;;;1541561;76;1597;-63
2023/02/20 12:13:02;;;;;;;;;;;21.30;55.80;;;;;;1537924;76;2392;-63
2023/02/20 12:15:06;;;;;;;;;;;21.20;55.70;;;;;;1534791;76;800;-62
2023/02/20 12:17:18;;;;;;;;;;;21.20;55.70;;;;;;1542644;76;1581;-64
2023/02/20 12:19:28;;;;;;;;;;;21.30;55.90;;;;;;1542243;76;712;-62
2023/02/20 12:21:34;;;;;;;;;;;21.20;55.70;;;;;;1541755;76;1171;-64
2023/02/20 12:23:38;;;;;;;;;;;21.20;55.80;;;;;;1547892;76;698;-61
2023/02/20 12:25:41;;;;;;;;;;;21.20;55.90;;;;;;1538288;76;1369;-63
2023/02/20 12:28:01;;;;;;;;;;;21.20;55.90;;;;;;1535740;76;1682;-61
2023/02/20 12:30:05;;;;;;;;;;;21.20;56.00;;;;;;1540823;76;1541;-62